sensor_id;sensor_type;location;lat;lon;timestamp;pressure;altitude;pressure_sealevel;temperature;humidity
76122;BME280;70471;53.200;6.080;2023-11-21T00:01:44;100928.03;;;20.35;41.60
76122;BME280;70471;53.200;6.080;2023-11-21T00:06:36;100947.03;;;20.42;41.97
76122;BME280;70471;53.200;6.080;2023-11-21T00:11:29;100946.72;;;20.43;42.15
76122;BME280;70471;53.200;6.080;2023-11-21T00:16:23;100950.63;;;20.42;41.60
76122;BME280;70471;53.200;6.080;2023-11-21T00:21:16;100923.06;;;20.32;41.69
76122;BME280;70471;53.200;6.080;2023-11-21T00:26:09;100932.53;;;20.31;41.94
76122;BME280;70471;53.200;6.080;2023-11-21T00:31:01;100946.28;;;20.36;42.02
76122;BME280;70471;53.200;6.080;2023-11-21T00:35:56;100946.06;;;20.32;41.95
76122;BME280;70471;53.200;6.080;2023-11-21T00:40:48;100950.47;;;20.33;42.17
76122;BME280;70471;53.200;6.080;2023-11-21T00:45:40;100961.00;;;20.31;42.19
76122;BME280;70471;53.200;6.080;2023-11-21T00:50:33;100964.06;;;20.30;42.01
76122;BME280;70471;53.200;6.080;2023-11-21T00:55:27;100958.63;;;20.25;42.04
76122;BME280;70471;53.200;6.080;2023-11-21T01:00:20;100961.97;;;20.22;41.89
76122;BME280;70471;53.200;6.080;2023-11-21T01:05:14;100969.13;;;20.23;42.06
76122;BME280;70471;53.200;6.080;2023-11-21T01:10:07;100989.88;;;20.25;41.96
76122;BME280;70471;53.200;6.080;2023-11-21T01:15:01;100989.66;;;20.22;41.56
76122;BME280;70471;53.200;6.080;2023-11-21T01:19:53;100987.47;;;20.18;42.23
76122;BME280;70471;53.200;6.080;2023-11-21T01:24:46;101003.78;;;20.20;41.85
76122;BME280;70471;53.200;6.080;2023-11-21T01:29:38;101004.06;;;20.18;42.17
76122;BME280;70471;53.200;6.080;2023-11-21T01:34:32;100990.38;;;20.08;41.92
76122;BME280;70471;53.200;6.080;2023-11-21T01:39:24;101019.31;;;20.16;41.82
76122;BME280;70471;53.200;6.080;2023-11-21T01:44:17;101023.22;;;20.15;42.11
76122;BME280;70471;53.200;6.080;2023-11-21T01:49:10;101018.03;;;20.08;41.87
76122;BME280;70471;53.200;6.080;2023-11-21T01:54:05;101024.41;;;20.09;42.08
76122;BME280;70471;53.200;6.080;2023-11-21T01:58:58;101026.94;;;20.05;42.01
76122;BME280;70471;53.200;6.080;2023-11-21T02:03:50;101037.41;;;20.08;42.14
76122;BME280;70471;53.200;6.080;2023-11-21T02:08:42;101020.44;;;19.96;41.99
76122;BME280;70471;53.200;6.080;2023-11-21T02:13:37;101047.13;;;20.06;41.60
76122;BME280;70471;53.200;6.080;2023-11-21T02:18:29;101042.31;;;19.92;41.94
76122;BME280;70471;53.200;6.080;2023-11-21T02:23:23;101053.03;;;19.99;41.86
76122;BME280;70471;53.200;6.080;2023-11-21T02:28:19;101059.59;;;20.03;42.07
76122;BME280;70471;53.200;6.080;2023-11-21T02:33:16;101070.97;;;20.01;41.63
76122;BME280;70471;53.200;6.080;2023-11-21T02:38:08;101055.84;;;19.94;41.98
76122;BME280;70471;53.200;6.080;2023-11-21T02:43:01;101064.09;;;19.99;41.81
76122;BME280;70471;53.200;6.080;2023-11-21T02:47:56;101065.19;;;19.98;42.12
76122;BME280;70471;53.200;6.080;2023-11-21T02:52:48;101068.56;;;19.95;41.84
76122;BME280;70471;53.200;6.080;2023-11-21T02:57:40;101083.50;;;19.94;41.74
76122;BME280;70471;53.200;6.080;2023-11-21T03:02:33;101089.88;;;19.94;42.13
76122;BME280;70471;53.200;6.080;2023-11-21T03:07:29;101076.97;;;19.84;42.07
76122;BME280;70471;53.200;6.080;2023-11-21T03:12:21;101091.84;;;19.89;41.83
76122;BME280;70471;53.200;6.080;2023-11-21T03:17:13;101108.97;;;19.91;41.81
76122;BME280;70471;53.200;6.080;2023-11-21T03:22:08;101095.03;;;19.77;41.96
76122;BME280;70471;53.200;6.080;2023-11-21T03:27:00;101118.44;;;19.84;42.25
76122;BME280;70471;53.200;6.080;2023-11-21T03:31:52;101120.16;;;19.80;42.32
76122;BME280;70471;53.200;6.080;2023-11-21T03:36:45;101120.44;;;19.79;42.04
76122;BME280;70471;53.200;6.080;2023-11-21T03:41:39;101121.84;;;19.76;42.14
76122;BME280;70471;53.200;6.080;2023-11-21T03:46:31;101139.50;;;19.80;42.09
76122;BME280;70471;53.200;6.080;2023-11-21T03:51:24;101143.16;;;19.76;42.38
76122;BME280;70471;53.200;6.080;2023-11-21T03:56:16;101159.16;;;19.79;42.41
76122;BME280;70471;53.200;6.080;2023-11-21T04:01:10;101155.66;;;19.68;41.99
76122;BME280;70471;53.200;6.080;2023-11-21T04:06:02;101188.19;;;19.81;42.44
76122;BME280;70471;53.200;6.080;2023-11-21T04:10:56;101197.06;;;19.78;42.38
76122;BME280;70471;53.200;6.080;2023-11-21T04:15:49;101215.56;;;19.78;42.45
76122;BME280;70471;53.200;6.080;2023-11-21T04:20:42;101215.38;;;19.69;41.97
76122;BME280;70471;53.200;6.080;2023-11-21T04:25:35;101228.34;;;19.74;42.35
76122;BME280;70471;53.200;6.080;2023-11-21T04:30:27;101237.50;;;19.64;42.28
76122;BME280;70471;53.200;6.080;2023-11-21T04:35:19;101252.41;;;19.68;42.10
76122;BME280;70471;53.200;6.080;2023-11-21T04:40:13;101266.19;;;19.73;42.08
76122;BME280;70471;53.200;6.080;2023-11-21T04:45:07;101280.06;;;19.68;42.12
76122;BME280;70471;53.200;6.080;2023-11-21T04:50:02;101289.44;;;19.72;42.01
76122;BME280;70471;53.200;6.080;2023-11-21T04:54:55;101286.16;;;19.65;42.41
76122;BME280;70471;53.200;6.080;2023-11-21T04:59:50;101308.28;;;19.65;42.07
76122;BME280;70471;53.200;6.080;2023-11-21T05:04:42;101324.88;;;19.65;41.90
76122;BME280;70471;53.200;6.080;2023-11-21T05:09:34;101315.50;;;19.56;42.39
76122;BME280;70471;53.200;6.080;2023-11-21T05:14:28;101348.66;;;19.66;42.41
76122;BME280;70471;53.200;6.080;2023-11-21T05:19:22;101366.88;;;19.67;42.58
76122;BME280;70471;53.200;6.080;2023-11-21T05:24:14;101370.53;;;19.62;42.54
76122;BME280;70471;53.200;6.080;2023-11-21T05:29:06;101372.44;;;19.57;42.21
76122;BME280;70471;53.200;6.080;2023-11-21T05:33:59;101382.97;;;19.60;42.13
76122;BME280;70471;53.200;6.080;2023-11-21T05:38:53;101385.19;;;19.58;42.22
76122;BME280;70471;53.200;6.080;2023-11-21T05:43:45;101392.63;;;19.62;42.13
76122;BME280;70471;53.200;6.080;2023-11-21T05:48:37;101398.41;;;19.56;42.49
76122;BME280;70471;53.200;6.080;2023-11-21T05:53:30;101404.78;;;19.51;42.35
76122;BME280;70471;53.200;6.080;2023-11-21T05:58:24;101408.66;;;19.55;42.61
76122;BME280;70471;53.200;6.080;2023-11-21T06:03:16;101421.38;;;19.56;42.23
76122;BME280;70471;53.200;6.080;2023-11-21T06:08:08;101433.28;;;19.52;42.36
76122;BME280;70471;53.200;6.080;2023-11-21T06:13:00;101449.03;;;19.56;42.68
76122;BME280;70471;53.200;6.080;2023-11-21T06:17:55;101449.84;;;19.57;42.41
76122;BME280;70471;53.200;6.080;2023-11-21T06:22:48;101466.44;;;19.57;42.16
76122;BME280;70471;53.200;6.080;2023-11-21T06:27:42;101471.13;;;19.51;42.54
76122;BME280;70471;53.200;6.080;2023-11-21T06:32:35;101488.00;;;19.55;42.70
76122;BME280;70471;53.200;6.080;2023-11-21T06:37:30;101493.81;;;19.53;42.66
76122;BME280;70471;53.200;6.080;2023-11-21T06:42:22;101502.63;;;19.55;42.33
76122;BME280;70471;53.200;6.080;2023-11-21T06:47:15;101499.91;;;19.50;42.28
76122;BME280;70471;53.200;6.080;2023-11-21T06:52:07;101517.00;;;19.57;42.11
76122;BME280;70471;53.200;6.080;2023-11-21T06:57:00;101522.81;;;19.56;42.55
76122;BME280;70471;53.200;6.080;2023-11-21T07:01:53;101555.97;;;19.56;42.83
76122;BME280;70471;53.200;6.080;2023-11-21T07:06:45;101566.78;;;19.68;43.09
76122;BME280;70471;53.200;6.080;2023-11-21T07:11:37;101570.00;;;19.90;42.71
76122;BME280;70471;53.200;6.080;2023-11-21T07:16:31;101577.34;;;20.15;42.86
76122;BME280;70471;53.200;6.080;2023-11-21T07:21:25;101584.19;;;20.33;42.18
76122;BME280;70471;53.200;6.080;2023-11-21T07:26:17;101567.56;;;20.44;42.63
76122;BME280;70471;53.200;6.080;2023-11-21T07:31:09;101571.03;;;20.60;42.14
76122;BME280;70471;53.200;6.080;2023-11-21T07:36:04;101604.75;;;20.72;41.72
76122;BME280;70471;53.200;6.080;2023-11-21T07:40:56;101623.59;;;20.65;41.75
76122;BME280;70471;53.200;6.080;2023-11-21T07:45:48;101635.25;;;20.62;42.50
76122;BME280;70471;53.200;6.080;2023-11-21T07:50:40;101642.41;;;20.68;42.57
76122;BME280;70471;53.200;6.080;2023-11-21T07:55:33;101658.34;;;20.91;42.34
76122;BME280;70471;53.200;6.080;2023-11-21T08:00:28;101661.56;;;21.09;42.12
76122;BME280;70471;53.200;6.080;2023-11-21T08:05:21;101667.75;;;21.30;41.54
76122;BME280;70471;53.200;6.080;2023-11-21T08:10:13;101673.81;;;21.37;41.45
76122;BME280;70471;53.200;6.080;2023-11-21T08:15:09;101671.28;;;21.41;41.53
76122;BME280;70471;53.200;6.080;2023-11-21T08:20:01;101696.09;;;21.56;41.22
76122;BME280;70471;53.200;6.080;2023-11-21T08:24:53;101698.53;;;21.63;41.29
76122;BME280;70471;53.200;6.080;2023-11-21T08:29:46;101720.63;;;21.78;41.18
76122;BME280;70471;53.200;6.080;2023-11-21T08:34:40;101726.34;;;21.87;41.06
76122;BME280;70471;53.200;6.080;2023-11-21T08:39:33;101726.84;;;21.94;40.68
76122;BME280;70471;53.200;6.080;2023-11-21T08:44:25;101729.91;;;21.93;40.71
76122;BME280;70471;53.200;6.080;2023-11-21T08:49:17;101726.91;;;21.84;40.67
76122;BME280;70471;53.200;6.080;2023-11-21T08:54:10;101746.78;;;21.96;40.79
76122;BME280;70471;53.200;6.080;2023-11-21T08:59:03;101747.00;;;22.00;40.78
76122;BME280;70471;53.200;6.080;2023-11-21T09:03:55;101747.88;;;22.01;40.29
76122;BME280;70471;53.200;6.080;2023-11-21T09:08:46;101758.97;;;22.01;40.38
76122;BME280;70471;53.200;6.080;2023-11-21T09:13:40;101763.25;;;21.88;40.65
76122;BME280;70471;53.200;6.080;2023-11-21T09:18:32;101783.50;;;21.88;40.50
76122;BME280;70471;53.200;6.080;2023-11-21T09:23:24;101781.06;;;21.76;40.72
76122;BME280;70471;53.200;6.080;2023-11-21T09:28:16;101806.25;;;21.85;40.69
76122;BME280;70471;53.200;6.080;2023-11-21T09:33:10;101813.22;;;21.83;40.36
76122;BME280;70471;53.200;6.080;2023-11-21T09:38:02;101823.50;;;21.77;40.34
76122;BME280;70471;53.200;6.080;2023-11-21T09:42:56;101826.41;;;21.61;40.45
76122;BME280;70471;53.200;6.080;2023-11-21T09:47:49;101833.63;;;21.57;40.55
76122;BME280;70471;53.200;6.080;2023-11-21T09:52:49;101854.09;;;21.67;40.63
76122;BME280;70471;53.200;6.080;2023-11-21T09:57:44;101859.63;;;21.67;40.85
76122;BME280;70471;53.200;6.080;2023-11-21T10:02:39;101869.91;;;21.66;40.73
76122;BME280;70471;53.200;6.080;2023-11-21T10:07:32;101853.13;;;21.47;40.45
76122;BME280;70471;53.200;6.080;2023-11-21T10:12:28;101898.16;;;21.68;40.54
76122;BME280;70471;53.200;6.080;2023-11-21T10:17:20;101883.00;;;21.55;40.55
76122;BME280;70471;53.200;6.080;2023-11-21T10:22:16;101909.56;;;21.67;40.65
76122;BME280;70471;53.200;6.080;2023-11-21T10:27:10;101900.19;;;21.57;40.44
76122;BME280;70471;53.200;6.080;2023-11-21T10:32:05;101922.06;;;21.59;40.43
76122;BME280;70471;53.200;6.080;2023-11-21T10:36:57;101934.25;;;21.63;40.38
76122;BME280;70471;53.200;6.080;2023-11-21T10:41:49;101926.22;;;21.61;40.44
76122;BME280;70471;53.200;6.080;2023-11-21T10:46:42;101934.59;;;21.56;40.13
76122;BME280;70471;53.200;6.080;2023-11-21T10:51:36;101940.38;;;21.60;40.50
76122;BME280;70471;53.200;6.080;2023-11-21T10:56:28;101949.00;;;21.58;40.70
76122;BME280;70471;53.200;6.080;2023-11-21T11:01:22;101956.22;;;21.59;40.76
76122;BME280;70471;53.200;6.080;2023-11-21T11:06:21;101957.84;;;21.60;40.50
76122;BME280;70471;53.200;6.080;2023-11-21T11:11:15;101952.34;;;21.55;40.45
76122;BME280;70471;53.200;6.080;2023-11-21T11:16:08;101968.94;;;21.66;40.64
76122;BME280;70471;53.200;6.080;2023-11-21T11:21:07;101975.59;;;21.64;40.21
76122;BME280;70471;53.200;6.080;2023-11-21T11:26:12;101980.84;;;21.66;40.04
76122;BME280;70471;53.200;6.080;2023-11-21T11:31:17;101973.38;;;21.61;40.48
76122;BME280;70471;53.200;6.080;2023-11-21T11:36:17;101993.00;;;21.70;40.42
76122;BME280;70471;53.200;6.080;2023-11-21T11:41:11;102000.47;;;21.75;40.46
76122;BME280;70471;53.200;6.080;2023-11-21T11:46:04;102002.72;;;21.73;40.25
76122;BME280;70471;53.200;6.080;2023-11-21T11:51:03;102013.81;;;21.73;40.26
76122;BME280;70471;53.200;6.080;2023-11-21T11:56:24;102020.19;;;21.73;40.07
76122;BME280;70471;53.200;6.080;2023-11-21T12:01:18;102026.63;;;21.69;40.20
76122;BME280;70471;53.200;6.080;2023-11-21T12:06:12;102018.28;;;21.63;40.41
76122;BME280;70471;53.200;6.080;2023-11-21T12:11:05;102023.84;;;21.63;40.31
76122;BME280;70471;53.200;6.080;2023-11-21T12:15:56;102035.75;;;21.69;40.03
76122;BME280;70471;53.200;6.080;2023-11-21T12:20:48;102044.38;;;21.68;40.09
76122;BME280;70471;53.200;6.080;2023-11-21T12:25:43;102049.34;;;21.71;39.99
76122;BME280;70471;53.200;6.080;2023-11-21T12:30:36;102043.22;;;21.74;39.83
76122;BME280;70471;53.200;6.080;2023-11-21T12:35:30;102062.91;;;21.83;39.78
76122;BME280;70471;53.200;6.080;2023-11-21T12:40:25;102066.81;;;21.81;40.05
76122;BME280;70471;53.200;6.080;2023-11-21T12:45:23;102077.91;;;21.81;39.92
76122;BME280;70471;53.200;6.080;2023-11-21T12:50:19;102062.09;;;21.77;39.95
76122;BME280;70471;53.200;6.080;2023-11-21T12:55:17;102075.69;;;21.78;40.33
76122;BME280;70471;53.200;6.080;2023-11-21T13:00:10;102082.59;;;21.81;40.52
76122;BME280;70471;53.200;6.080;2023-11-21T13:05:07;102093.41;;;21.77;40.21
76122;BME280;70471;53.200;6.080;2023-11-21T13:10:09;102100.34;;;21.75;40.36
76122;BME280;70471;53.200;6.080;2023-11-21T13:15:03;102110.34;;;21.76;39.92
76122;BME280;70471;53.200;6.080;2023-11-21T13:19:57;102107.03;;;21.74;40.57
76122;BME280;70471;53.200;6.080;2023-11-21T13:24:50;102105.69;;;21.61;40.23
76122;BME280;70471;53.200;6.080;2023-11-21T13:29:43;102114.81;;;21.67;40.47
76122;BME280;70471;53.200;6.080;2023-11-21T13:34:35;102109.31;;;21.56;40.52
76122;BME280;70471;53.200;6.080;2023-11-21T13:39:27;102130.94;;;21.59;40.29
76122;BME280;70471;53.200;6.080;2023-11-21T13:44:21;102137.03;;;21.56;40.34
76122;BME280;70471;53.200;6.080;2023-11-21T13:49:24;102154.19;;;21.63;40.37
76122;BME280;70471;53.200;6.080;2023-11-21T13:54:17;102165.84;;;21.60;40.48
76122;BME280;70471;53.200;6.080;2023-11-21T13:59:10;102169.75;;;21.64;40.46
76122;BME280;70471;53.200;6.080;2023-11-21T14:04:12;102190.84;;;21.66;40.31
76122;BME280;70471;53.200;6.080;2023-11-21T14:09:09;102187.22;;;21.60;40.76
76122;BME280;70471;53.200;6.080;2023-11-21T14:14:04;102199.69;;;21.57;40.86
76122;BME280;70471;53.200;6.080;2023-11-21T14:18:56;102197.22;;;21.51;40.87
76122;BME280;70471;53.200;6.080;2023-11-21T14:23:56;102218.84;;;21.49;40.74
76122;BME280;70471;53.200;6.080;2023-11-21T14:28:48;102220.22;;;21.46;40.84
76122;BME280;70471;53.200;6.080;2023-11-21T14:33:40;102238.53;;;21.42;40.93
76122;BME280;70471;53.200;6.080;2023-11-21T14:38:32;102233.00;;;21.26;40.90
76122;BME280;70471;53.200;6.080;2023-11-21T14:43:25;102242.16;;;21.32;41.06
76122;BME280;70471;53.200;6.080;2023-11-21T14:48:20;102246.28;;;21.35;41.10
76122;BME280;70471;53.200;6.080;2023-11-21T14:53:32;102249.63;;;21.26;41.21
76122;BME280;70471;53.200;6.080;2023-11-21T14:58:45;102254.03;;;21.22;41.54
76122;BME280;70471;53.200;6.080;2023-11-21T15:03:37;102244.31;;;21.15;41.61
76122;BME280;70471;53.200;6.080;2023-11-21T15:08:39;102269.56;;;21.28;41.30
76122;BME280;70471;53.200;6.080;2023-11-21T15:13:33;102292.28;;;21.25;41.28
76122;BME280;70471;53.200;6.080;2023-11-21T15:18:27;102291.75;;;21.18;41.49
76122;BME280;70471;53.200;6.080;2023-11-21T15:23:20;102292.84;;;21.07;41.77
76122;BME280;70471;53.200;6.080;2023-11-21T15:28:12;102289.53;;;21.15;41.36
76122;BME280;70471;53.200;6.080;2023-11-21T15:33:05;102282.81;;;21.06;41.42
76122;BME280;70471;53.200;6.080;2023-11-21T15:37:59;102298.94;;;21.14;41.50
76122;BME280;70471;53.200;6.080;2023-11-21T15:42:52;102314.47;;;21.10;41.43
76122;BME280;70471;53.200;6.080;2023-11-21T15:47:44;102321.91;;;21.09;41.90
76122;BME280;70471;53.200;6.080;2023-11-21T15:52:36;102332.19;;;21.09;41.50
76122;BME280;70471;53.200;6.080;2023-11-21T15:57:30;102356.56;;;21.07;41.47
76122;BME280;70471;53.200;6.080;2023-11-21T16:02:22;102352.94;;;21.06;41.89
76122;BME280;70471;53.200;6.080;2023-11-21T16:07:13;102367.03;;;21.05;41.75
76122;BME280;70471;53.200;6.080;2023-11-21T16:12:05;102372.03;;;21.03;41.29
76122;BME280;70471;53.200;6.080;2023-11-21T16:16:59;102377.56;;;21.03;41.74
76122;BME280;70471;53.200;6.080;2023-11-21T16:21:51;102374.78;;;20.98;41.42
76122;BME280;70471;53.200;6.080;2023-11-21T16:26:43;102393.66;;;21.01;41.38
76122;BME280;70471;53.200;6.080;2023-11-21T16:31:35;102390.81;;;20.90;41.91
76122;BME280;70471;53.200;6.080;2023-11-21T16:36:29;102414.13;;;20.95;41.41
76122;BME280;70471;53.200;6.080;2023-11-21T16:41:22;102442.66;;;21.00;41.71
76122;BME280;70471;53.200;6.080;2023-11-21T16:46:14;102436.84;;;20.97;41.58
76122;BME280;70471;53.200;6.080;2023-11-21T16:51:06;102460.16;;;21.01;41.30
76122;BME280;70471;53.200;6.080;2023-11-21T16:56:03;102459.56;;;20.94;41.31
76122;BME280;70471;53.200;6.080;2023-11-21T17:00:55;102482.31;;;21.01;41.17
76122;BME280;70471;53.200;6.080;2023-11-21T17:05:48;102483.97;;;21.02;41.90
76122;BME280;70471;53.200;6.080;2023-11-21T17:10:40;102495.31;;;21.00;41.54
76122;BME280;70471;53.200;6.080;2023-11-21T17:15:34;102512.91;;;21.16;41.69
76122;BME280;70471;53.200;6.080;2023-11-21T17:20:25;102518.19;;;21.18;42.61
76122;BME280;70471;53.200;6.080;2023-11-21T17:25:18;102527.97;;;21.31;42.95
76122;BME280;70471;53.200;6.080;2023-11-21T17:30:10;102523.25;;;21.31;42.56
76122;BME280;70471;53.200;6.080;2023-11-21T17:35:04;102533.84;;;21.44;42.48
76122;BME280;70471;53.200;6.080;2023-11-21T17:39:57;102529.44;;;21.43;41.93
76122;BME280;70471;53.200;6.080;2023-11-21T17:44:49;102531.06;;;21.39;41.87
76122;BME280;70471;53.200;6.080;2023-11-21T17:49:41;102552.16;;;21.40;42.03
76122;BME280;70471;53.200;6.080;2023-11-21T17:54:35;102551.91;;;21.47;41.86
76122;BME280;70471;53.200;6.080;2023-11-21T17:59:30;102554.59;;;21.37;41.99
76122;BME280;70471;53.200;6.080;2023-11-21T18:04:22;102544.09;;;21.39;42.11
76122;BME280;70471;53.200;6.080;2023-11-21T18:09:14;102571.56;;;21.40;42.10
76122;BME280;70471;53.200;6.080;2023-11-21T18:14:09;102569.06;;;21.39;41.85
76122;BME280;70471;53.200;6.080;2023-11-21T18:19:02;102574.00;;;21.32;41.97
76122;BME280;70471;53.200;6.080;2023-11-21T18:23:54;102593.41;;;21.37;42.17
76122;BME280;70471;53.200;6.080;2023-11-21T18:28:46;102590.66;;;21.37;42.27
76122;BME280;70471;53.200;6.080;2023-11-21T18:33:40;102591.19;;;21.34;41.93
76122;BME280;70471;53.200;6.080;2023-11-21T18:38:32;102607.81;;;21.34;42.40
76122;BME280;70471;53.200;6.080;2023-11-21T18:43:24;102580.59;;;21.25;42.48
76122;BME280;70471;53.200;6.080;2023-11-21T18:48:15;102605.63;;;21.36;42.66
76122;BME280;70471;53.200;6.080;2023-11-21T18:53:11;102622.59;;;21.44;42.33
76122;BME280;70471;53.200;6.080;2023-11-21T18:58:05;102624.56;;;21.49;42.28
76122;BME280;70471;53.200;6.080;2023-11-21T19:02:57;102630.97;;;21.50;42.53
76122;BME280;70471;53.200;6.080;2023-11-21T19:07:50;102623.75;;;21.54;42.33
76122;BME280;70471;53.200;6.080;2023-11-21T19:12:45;102611.28;;;21.51;42.22
76122;BME280;70471;53.200;6.080;2023-11-21T19:17:37;102639.97;;;21.72;42.07
76122;BME280;70471;53.200;6.080;2023-11-21T19:22:29;102648.00;;;21.74;42.02
76122;BME280;70471;53.200;6.080;2023-11-21T19:27:21;102664.66;;;21.74;42.23
76122;BME280;70471;53.200;6.080;2023-11-21T19:32:14;102655.75;;;21.72;41.95
76122;BME280;70471;53.200;6.080;2023-11-21T19:37:06;102655.28;;;21.80;41.77
76122;BME280;70471;53.200;6.080;2023-11-21T19:41:58;102661.44;;;21.92;41.99
76122;BME280;70471;53.200;6.080;2023-11-21T19:46:50;102667.59;;;22.05;41.59
76122;BME280;70471;53.200;6.080;2023-11-21T19:51:43;102654.31;;;22.12;41.76
76122;BME280;70471;53.200;6.080;2023-11-21T19:56:37;102625.97;;;22.05;41.63
76122;BME280;70471;53.200;6.080;2023-11-21T20:01:29;102664.06;;;22.20;41.30
76122;BME280;70471;53.200;6.080;2023-11-21T20:06:21;102660.97;;;22.16;41.49
76122;BME280;70471;53.200;6.080;2023-11-21T20:11:19;102682.09;;;22.22;41.00
76122;BME280;70471;53.200;6.080;2023-11-21T20:16:11;102675.66;;;22.11;40.87
76122;BME280;70471;53.200;6.080;2023-11-21T20:21:05;102694.91;;;22.23;41.11
76122;BME280;70471;53.200;6.080;2023-11-21T20:25:58;102693.75;;;22.14;41.03
76122;BME280;70471;53.200;6.080;2023-11-21T20:30:53;102719.59;;;22.20;41.08
76122;BME280;70471;53.200;6.080;2023-11-21T20:35:45;102732.94;;;22.23;40.94
76122;BME280;70471;53.200;6.080;2023-11-21T20:40:38;102731.00;;;22.23;40.88
76122;BME280;70471;53.200;6.080;2023-11-21T20:45:31;102722.91;;;22.16;41.01
76122;BME280;70471;53.200;6.080;2023-11-21T20:50:24;102750.69;;;22.22;40.81
76122;BME280;70471;53.200;6.080;2023-11-21T20:55:18;102744.28;;;22.16;40.96
76122;BME280;70471;53.200;6.080;2023-11-21T21:00:11;102750.94;;;22.15;40.70
76122;BME280;70471;53.200;6.080;2023-11-21T21:05:06;102758.19;;;22.21;40.33
76122;BME280;70471;53.200;6.080;2023-11-21T21:10:01;102758.75;;;22.18;40.80
76122;BME280;70471;53.200;6.080;2023-11-21T21:14:54;102760.94;;;22.16;40.48
76122;BME280;70471;53.200;6.080;2023-11-21T21:19:47;102757.00;;;22.07;40.33
76122;BME280;70471;53.200;6.080;2023-11-21T21:24:40;102782.31;;;22.15;40.80
76122;BME280;70471;53.200;6.080;2023-11-21T21:29:33;102777.56;;;22.11;40.17
76122;BME280;70471;53.200;6.080;2023-11-21T21:34:25;102782.53;;;22.04;40.32
76122;BME280;70471;53.200;6.080;2023-11-21T21:39:17;102789.19;;;22.03;40.12
76122;BME280;70471;53.200;6.080;2023-11-21T21:44:10;102781.38;;;21.94;40.22
76122;BME280;70471;53.200;6.080;2023-11-21T21:49:03;102790.78;;;21.93;39.89
76122;BME280;70471;53.200;6.080;2023-11-21T21:53:56;102815.53;;;22.00;39.57
76122;BME280;70471;53.200;6.080;2023-11-21T21:58:48;102808.22;;;21.89;39.45
76122;BME280;70471;53.200;6.080;2023-11-21T22:03:40;102824.09;;;21.93;39.76
76122;BME280;70471;53.200;6.080;2023-11-21T22:08:34;102831.56;;;21.88;39.33
76122;BME280;70471;53.200;6.080;2023-11-21T22:13:26;102841.50;;;21.84;39.18
76122;BME280;70471;53.200;6.080;2023-11-21T22:18:18;102827.75;;;21.72;39.27
76122;BME280;70471;53.200;6.080;2023-11-21T22:23:10;102836.69;;;21.74;39.26
76122;BME280;70471;53.200;6.080;2023-11-21T22:28:04;102843.84;;;21.70;39.14
76122;BME280;70471;53.200;6.080;2023-11-21T22:32:56;102825.44;;;21.58;39.31
76122;BME280;70471;53.200;6.080;2023-11-21T22:37:49;102839.63;;;21.62;39.41
76122;BME280;70471;53.200;6.080;2023-11-21T22:42:41;102849.84;;;21.56;39.53
76122;BME280;70471;53.200;6.080;2023-11-21T22:47:34;102844.56;;;21.55;39.52
76122;BME280;70471;53.200;6.080;2023-11-21T22:52:26;102851.47;;;21.52;39.15
76122;BME280;70471;53.200;6.080;2023-11-21T22:57:19;102848.59;;;21.42;39.12
76122;BME280;70471;53.200;6.080;2023-11-21T23:02:12;102854.41;;;21.40;39.48
76122;BME280;70471;53.200;6.080;2023-11-21T23:07:05;102868.53;;;21.39;38.76
76122;BME280;70471;53.200;6.080;2023-11-21T23:11:58;102890.72;;;21.39;39.01
76122;BME280;70471;53.200;6.080;2023-11-21T23:16:50;102886.22;;;21.33;38.81
76122;BME280;70471;53.200;6.080;2023-11-21T23:21:42;102865.06;;;21.26;39.19
76122;BME280;70471;53.200;6.080;2023-11-21T23:26:36;102862.25;;;21.21;39.13
76122;BME280;70471;53.200;6.080;2023-11-21T23:31:29;102872.56;;;21.26;38.95
76122;BME280;70471;53.200;6.080;2023-11-21T23:36:21;102880.53;;;21.22;39.09
76122;BME280;70471;53.200;6.080;2023-11-21T23:41:15;102861.59;;;21.14;39.10
76122;BME280;70471;53.200;6.080;2023-11-21T23:46:10;102883.25;;;21.17;39.17
76122;BME280;70471;53.200;6.080;2023-11-21T23:51:02;102869.78;;;21.04;38.91
76122;BME280;70471;53.200;6.080;2023-11-21T23:55:54;102888.19;;;21.10;39.24
